createdAt,value
2023-03-20T00:00:51.213Z,23.15
2023-03-20T00:03:21.036Z,32.30
2023-03-20T00:05:49.193Z,21.52
2023-03-20T00:08:17.297Z,21.75
2023-03-20T00:10:48.110Z,22.42
2023-03-20T00:13:21.004Z,20.25
2023-03-20T00:15:49.007Z,20.95
2023-03-20T00:18:19.858Z,23.52
2023-03-20T00:20:49.281Z,20.10
2023-03-20T00:23:18.144Z,22.20
2023-03-20T00:25:47.369Z,21.58
2023-03-20T00:28:32.612Z,24.55
2023-03-20T00:31:01.400Z,27.67
2023-03-20T00:33:31.286Z,26.20
2023-03-20T00:36:00.858Z,23.90
2023-03-20T00:38:28.879Z,22.25
2023-03-20T00:40:56.866Z,20.40
2023-03-20T00:43:25.187Z,24.98
2023-03-20T00:45:53.260Z,21.17
2023-03-20T00:48:21.362Z,25.33
2023-03-20T00:50:49.659Z,19.65
2023-03-20T00:53:18.975Z,26.48
2023-03-20T00:55:46.995Z,21.35
2023-03-20T00:58:14.951Z,24.60
2023-03-20T01:00:44.517Z,25.30
2023-03-20T01:03:17.110Z,22.70
2023-03-20T01:05:45.838Z,26.52
2023-03-20T01:08:16.321Z,24.48
2023-03-20T01:10:46.771Z,22.08
2023-03-20T01:13:23.957Z,23.55
2023-03-20T01:15:53.416Z,24.80
2023-03-20T01:18:23.706Z,20.08
2023-03-20T01:20:52.955Z,22.98
2023-03-20T01:23:23.135Z,23.17
2023-03-20T01:25:52.464Z,25.55
2023-03-20T01:28:23.234Z,24.35
2023-03-20T01:30:51.562Z,24.25
2023-03-20T01:33:21.473Z,21.45
2023-03-20T01:35:51.085Z,27.25
2023-03-20T01:38:22.349Z,24.70
2023-03-20T01:40:57.190Z,24.88
2023-03-20T01:43:27.189Z,23.08
2023-03-20T01:46:01.475Z,25.35
2023-03-20T01:48:57.092Z,22.60
2023-03-20T01:51:26.592Z,26.65
2023-03-20T01:53:58.438Z,21.60
2023-03-20T01:56:31.500Z,19.17
2023-03-20T01:59:03.622Z,27.58
2023-03-20T02:01:32.582Z,24.50
2023-03-20T02:04:01.376Z,23.02
2023-03-20T02:06:29.523Z,31.65
2023-03-20T02:08:57.536Z,22.85
2023-03-20T02:11:28.105Z,21.00
2023-03-20T02:14:00.616Z,24.35
2023-03-20T02:16:28.893Z,22.77
2023-03-20T02:18:58.158Z,27.70
2023-03-20T02:21:58.281Z,25.55
2023-03-20T02:24:56.028Z,22.45
2023-03-20T02:27:34.661Z,23.30
2023-03-20T02:30:44.336Z,25.38
2023-03-20T02:33:42.851Z,28.10
2023-03-20T02:36:51.724Z,26.92
2023-03-20T02:39:41.484Z,22.58
2023-03-20T02:42:18.251Z,25.58
2023-03-20T02:44:54.604Z,28.30
2023-03-20T02:47:27.957Z,25.13
2023-03-20T02:50:04.979Z,29.00
2023-03-20T02:52:42.016Z,30.70
2023-03-20T02:55:18.506Z,27.63
2023-03-20T02:57:58.519Z,25.75
2023-03-20T03:00:33.516Z,22.95
2023-03-20T03:03:08.078Z,28.23
2023-03-20T03:05:41.402Z,24.88
2023-03-20T03:08:13.653Z,28.90
2023-03-20T03:10:45.800Z,28.65
2023-03-20T03:13:18.112Z,33.38
2023-03-20T03:18:18.538Z,25.67
2023-03-20T03:20:49.036Z,27.35
2023-03-20T03:23:30.581Z,23.35
2023-03-20T03:26:02.075Z,25.25
2023-03-20T03:28:37.283Z,24.37
2023-03-20T03:31:08.502Z,27.17
2023-03-20T03:33:40.756Z,23.70
2023-03-20T03:36:16.307Z,27.27
2023-03-20T03:38:48.142Z,22.65
2023-03-20T03:41:27.802Z,26.60
2023-03-20T03:44:03.723Z,28.45
2023-03-20T03:46:39.361Z,23.30
2023-03-20T03:49:12.277Z,26.23
2023-03-20T03:51:43.620Z,26.88
2023-03-20T03:54:15.006Z,29.88
2023-03-20T03:56:48.403Z,25.77
2023-03-20T03:59:22.618Z,26.13
2023-03-20T04:01:52.668Z,26.23
2023-03-20T04:04:22.398Z,23.67
2023-03-20T04:06:50.763Z,32.70
2023-03-20T04:09:18.916Z,28.73
2023-03-20T04:11:52.054Z,27.15
2023-03-20T04:14:20.676Z,31.75
2023-03-20T04:16:48.854Z,23.48
2023-03-20T04:19:16.951Z,28.17
2023-03-20T04:21:45.710Z,26.10
2023-03-20T04:24:13.681Z,27.65
2023-03-20T04:26:41.963Z,23.90
2023-03-20T04:29:11.416Z,29.27
2023-03-20T04:31:39.438Z,29.90
2023-03-20T04:34:07.890Z,26.05
2023-03-20T04:36:35.856Z,25.90
2023-03-20T04:39:03.942Z,28.63
2023-03-20T04:41:31.873Z,28.20
2023-03-20T04:44:00.128Z,24.08
2023-03-20T04:46:29.695Z,26.83
2023-03-20T04:48:57.613Z,28.55
2023-03-20T04:51:25.957Z,22.80
2023-03-20T04:53:53.983Z,31.20
2023-03-20T04:56:21.976Z,23.92
2023-03-20T04:58:49.913Z,27.27
2023-03-20T05:01:17.900Z,26.58
2023-03-20T05:03:47.407Z,28.55
2023-03-20T05:06:15.466Z,25.20
2023-03-20T05:08:43.530Z,28.10
2023-03-20T05:11:11.814Z,24.25
2023-03-20T05:13:39.941Z,25.95
2023-03-20T05:16:09.505Z,29.83
2023-03-20T05:18:37.564Z,29.75
2023-03-20T05:21:08.226Z,27.80
2023-03-20T05:23:36.291Z,28.58
2023-03-20T05:26:04.432Z,28.75
2023-03-20T05:28:33.079Z,31.08
2023-03-20T05:31:01.317Z,25.63
2023-03-20T05:33:29.653Z,26.88
2023-03-20T05:35:57.991Z,26.80
2023-03-20T05:38:27.837Z,28.17
2023-03-20T05:40:59.955Z,30.65
2023-03-20T05:43:29.100Z,22.75
2023-03-20T05:45:57.246Z,30.75
2023-03-20T05:48:25.933Z,25.80
2023-03-20T05:50:53.993Z,25.67
2023-03-20T05:53:21.965Z,28.90
2023-03-20T05:55:51.382Z,34.20
2023-03-20T05:58:19.722Z,23.40
2023-03-20T06:00:47.939Z,25.30
2023-03-20T06:03:16.016Z,23.73
2023-03-20T06:05:45.418Z,34.28
2023-03-20T06:08:13.438Z,27.48
2023-03-20T06:10:41.473Z,24.95
2023-03-20T06:13:10.911Z,26.02
2023-03-20T06:15:39.309Z,26.20
2023-03-20T06:18:07.670Z,20.80
2023-03-20T06:20:35.905Z,28.05
2023-03-20T06:23:04.233Z,25.58
2023-03-20T06:25:32.550Z,21.98
2023-03-20T06:28:00.533Z,25.42
2023-03-20T06:30:30.065Z,22.15
2023-03-20T06:32:58.141Z,25.67
2023-03-20T06:35:30.772Z,20.15
2023-03-20T06:37:59.139Z,21.60
2023-03-20T06:40:28.391Z,19.23
2023-03-20T06:42:56.720Z,18.13
2023-03-20T06:45:24.725Z,24.52
2023-03-20T06:47:54.241Z,24.50
2023-03-20T06:50:22.221Z,23.73
2023-03-20T06:52:50.275Z,21.10
2023-03-20T06:55:18.379Z,24.55
2023-03-20T06:57:46.634Z,18.80
2023-03-20T07:00:15.849Z,17.02
2023-03-20T07:02:43.846Z,21.77
2023-03-20T07:05:13.290Z,19.50
2023-03-20T07:07:41.557Z,21.45
2023-03-20T07:10:12.503Z,22.40
2023-03-20T07:12:40.749Z,18.27
2023-03-20T07:15:09.670Z,17.27
2023-03-20T07:17:37.832Z,21.77
2023-03-20T07:20:06.545Z,20.25
2023-03-20T07:22:35.915Z,18.50
2023-03-20T07:25:04.461Z,20.10
2023-03-20T07:27:32.525Z,20.98
2023-03-20T07:30:00.805Z,18.40
2023-03-20T07:32:28.946Z,17.88
2023-03-20T07:34:57.474Z,18.10
2023-03-20T07:37:25.745Z,20.83
2023-03-20T07:39:55.328Z,18.17
2023-03-20T07:42:23.473Z,21.98
2023-03-20T07:44:51.537Z,19.10
2023-03-20T07:47:19.529Z,16.77
2023-03-20T07:49:47.962Z,23.83
2023-03-20T07:52:17.180Z,14.93
2023-03-20T07:54:45.183Z,20.15
2023-03-20T07:57:14.487Z,21.27
2023-03-20T07:59:42.650Z,17.75
2023-03-20T08:02:15.911Z,19.35
2023-03-20T08:04:44.102Z,18.35
2023-03-20T08:07:12.946Z,23.52
2023-03-20T08:09:41.207Z,22.70
2023-03-20T08:12:09.390Z,19.65
2023-03-20T08:14:39.784Z,23.13
2023-03-20T08:17:14.902Z,23.23
2023-03-20T08:19:43.213Z,17.27
2023-03-20T08:22:11.350Z,22.08
2023-03-20T08:24:39.472Z,21.08
2023-03-20T08:27:07.841Z,23.63
2023-03-20T08:29:36.056Z,26.40
2023-03-20T08:32:05.670Z,25.60
2023-03-20T08:34:34.385Z,23.17
2023-03-20T08:37:04.860Z,22.42
2023-03-20T08:39:33.316Z,21.65
2023-03-20T08:42:01.522Z,21.98
2023-03-20T08:44:29.623Z,20.88
2023-03-20T08:46:57.576Z,20.42
2023-03-20T08:49:28.027Z,20.35
2023-03-20T08:51:56.488Z,17.48
2023-03-20T08:54:25.250Z,23.83
2023-03-20T08:56:53.420Z,22.25
2023-03-20T08:59:21.628Z,20.30
2023-03-20T09:01:50.508Z,20.98
2023-03-20T09:04:19.418Z,23.05
2023-03-20T09:06:48.941Z,22.35
2023-03-20T09:09:19.634Z,28.15
2023-03-20T09:11:47.596Z,25.77
2023-03-20T09:14:16.209Z,25.63
2023-03-20T09:16:44.549Z,26.33
2023-03-20T09:19:12.696Z,27.15
2023-03-20T09:21:40.734Z,23.67
2023-03-20T09:24:11.517Z,24.30
2023-03-20T09:26:39.712Z,30.25
2023-03-20T09:29:07.877Z,23.23
2023-03-20T09:31:36.032Z,24.55
2023-03-20T09:34:04.281Z,26.20
2023-03-20T09:36:32.224Z,28.40
2023-03-20T09:39:00.482Z,26.92
2023-03-20T09:41:45.795Z,24.83
2023-03-20T09:44:41.093Z,33.08
2023-03-20T09:47:21.193Z,27.85
2023-03-20T09:50:00.129Z,26.48
2023-03-20T09:52:32.862Z,28.30
2023-03-20T09:55:05.012Z,25.02
2023-03-20T09:57:40.365Z,25.48
2023-03-20T10:00:13.667Z,27.17
2023-03-20T10:02:49.302Z,30.15
2023-03-20T10:05:22.871Z,24.42
2023-03-20T10:07:51.653Z,30.23
2023-03-20T10:10:20.978Z,29.98
2023-03-20T10:13:00.191Z,27.20
2023-03-20T10:15:42.949Z,25.10
2023-03-20T10:18:22.134Z,25.67
2023-03-20T10:20:56.713Z,32.65
2023-03-20T10:23:32.152Z,26.67
2023-03-20T10:26:06.211Z,32.55
2023-03-20T10:28:41.153Z,27.25
2023-03-20T10:31:28.081Z,24.33
2023-03-20T10:34:06.044Z,31.60
2023-03-20T10:36:45.139Z,31.38
2023-03-20T10:39:24.101Z,32.53
2023-03-20T10:41:56.209Z,29.05
2023-03-20T10:44:32.306Z,26.77
2023-03-20T10:47:03.285Z,28.08
2023-03-20T10:49:37.666Z,32.58
2023-03-20T10:52:12.170Z,25.13
2023-03-20T10:54:43.549Z,26.95
2023-03-20T10:57:18.534Z,29.27
2023-03-20T10:59:51.109Z,27.63
2023-03-20T11:02:21.225Z,31.77
2023-03-20T11:04:49.341Z,30.95
2023-03-20T11:07:24.592Z,26.77
2023-03-20T11:10:12.238Z,25.75
2023-03-20T11:12:41.892Z,22.88
2023-03-20T11:15:29.854Z,24.30
2023-03-20T11:17:59.176Z,25.67
2023-03-20T11:20:28.735Z,24.08
2023-03-20T11:23:03.546Z,22.48
2023-03-20T11:25:33.992Z,29.17
2023-03-20T11:28:20.726Z,21.83
2023-03-20T11:31:04.605Z,26.90
2023-03-20T11:33:34.964Z,28.40
2023-03-20T11:36:03.198Z,24.30
2023-03-20T11:38:32.919Z,26.17
2023-03-20T11:41:05.787Z,27.30
2023-03-20T11:43:39.291Z,30.08
2023-03-20T11:46:13.635Z,28.33
2023-03-20T11:48:43.218Z,25.98
2023-03-20T11:51:15.578Z,28.42
2023-03-20T11:56:26.076Z,26.15
2023-03-20T11:58:58.844Z,28.90
2023-03-20T12:01:30.033Z,28.48
2023-03-20T12:04:04.372Z,23.25
2023-03-20T12:06:44.118Z,24.88
2023-03-20T12:09:23.752Z,23.67
2023-03-20T12:11:55.503Z,23.58
2023-03-20T12:14:32.141Z,26.05
2023-03-20T12:17:16.611Z,25.00
2023-03-20T12:19:47.021Z,24.27
2023-03-20T12:22:22.551Z,23.83
2023-03-20T12:24:56.173Z,23.13
2023-03-20T12:27:29.116Z,20.05
2023-03-20T12:30:03.639Z,25.33
2023-03-20T12:32:39.590Z,20.92
2023-03-20T12:35:16.444Z,24.15
2023-03-20T12:37:44.796Z,21.92
2023-03-20T12:40:18.866Z,25.23
2023-03-20T12:43:01.203Z,21.70
2023-03-20T12:45:37.822Z,21.55
2023-03-20T12:48:30.932Z,23.02
2023-03-20T12:51:06.772Z,20.88
2023-03-20T12:53:46.603Z,22.30
2023-03-20T12:56:25.294Z,16.90
2023-03-20T12:58:59.053Z,19.90
2023-03-20T13:01:32.278Z,19.45
2023-03-20T13:04:34.799Z,19.90
2023-03-20T13:07:05.128Z,21.75
2023-03-20T13:09:52.171Z,22.30
2023-03-20T13:12:31.202Z,21.63
2023-03-20T13:15:14.587Z,19.20
2023-03-20T13:17:48.220Z,19.80
2023-03-20T13:20:25.064Z,19.60
2023-03-20T13:23:11.197Z,21.75
2023-03-20T13:26:11.701Z,21.98
2023-03-20T13:28:48.245Z,20.05
2023-03-20T13:31:27.976Z,19.13
2023-03-20T13:34:04.169Z,21.85
2023-03-20T13:36:45.199Z,24.02
2023-03-20T13:39:17.080Z,24.98
2023-03-20T13:41:48.249Z,23.80
2023-03-20T13:44:21.006Z,21.60
2023-03-20T13:46:52.700Z,21.83
2023-03-20T13:49:26.861Z,25.10
2023-03-20T13:52:04.741Z,25.10
2023-03-20T13:54:47.794Z,25.58
2023-03-20T13:57:27.864Z,27.52
2023-03-20T14:00:08.386Z,28.55
2023-03-20T14:02:52.534Z,27.73
2023-03-20T14:05:23.606Z,30.00
2023-03-20T14:07:57.466Z,29.65
2023-03-20T14:10:39.436Z,30.73
2023-03-20T14:13:14.474Z,32.47
2023-03-20T14:15:50.712Z,35.85
2023-03-20T14:18:22.654Z,32.38
2023-03-20T14:20:57.191Z,32.67
2023-03-20T14:23:35.570Z,35.47
2023-03-20T14:26:09.232Z,33.05
2023-03-20T14:28:47.193Z,37.03
2023-03-20T14:31:24.679Z,37.30
2023-03-20T14:34:00.467Z,39.22
2023-03-20T14:36:44.798Z,38.45
2023-03-20T14:39:22.146Z,36.50
2023-03-20T14:42:01.102Z,37.88
2023-03-20T14:44:46.413Z,34.92
2023-03-20T14:47:25.683Z,32.15
2023-03-20T14:49:58.872Z,32.83
2023-03-20T14:52:51.539Z,29.35
2023-03-20T14:55:47.467Z,31.98
2023-03-20T14:58:54.615Z,30.95
2023-03-20T15:01:29.718Z,30.70
2023-03-20T15:04:01.570Z,35.08
2023-03-20T15:06:30.631Z,29.80
2023-03-20T15:09:01.821Z,27.00
2023-03-20T15:11:31.812Z,29.33
2023-03-20T15:14:01.386Z,28.83
2023-03-20T15:16:31.470Z,27.88
2023-03-20T15:19:00.118Z,29.05
2023-03-20T15:21:34.974Z,27.27
2023-03-20T15:24:03.631Z,30.50
2023-03-20T15:26:35.816Z,26.98
2023-03-20T15:29:07.780Z,24.70
2023-03-20T15:31:38.182Z,30.33
2023-03-20T15:34:09.987Z,25.90
2023-03-20T15:36:40.888Z,24.42
2023-03-20T15:39:16.194Z,26.35
2023-03-20T15:41:48.265Z,22.05
2023-03-20T15:44:22.185Z,24.75
2023-03-20T15:47:00.274Z,23.63
2023-03-20T15:49:29.766Z,25.17
2023-03-20T15:52:01.693Z,26.05
2023-03-20T15:54:30.105Z,30.38
2023-03-20T15:57:01.611Z,28.05
2023-03-20T15:59:33.723Z,26.77
2023-03-20T16:02:03.077Z,27.48
2023-03-20T16:04:31.184Z,24.38
2023-03-20T16:07:00.693Z,22.30
2023-03-20T16:09:29.379Z,25.58
2023-03-20T16:12:00.409Z,22.92
2023-03-20T16:14:31.100Z,23.15
2023-03-20T16:17:01.671Z,26.50
2023-03-20T16:19:30.666Z,28.00
2023-03-20T16:22:01.387Z,26.48
2023-03-20T16:24:31.106Z,25.27
2023-03-20T16:27:00.842Z,22.23
2023-03-20T16:29:30.895Z,23.38
2023-03-20T16:32:02.741Z,25.25
2023-03-20T16:34:35.526Z,22.55
2023-03-20T16:37:09.282Z,23.15
2023-03-20T16:39:37.495Z,15.15
2023-03-20T16:42:31.234Z,19.40
2023-03-20T16:44:59.850Z,21.05
2023-03-20T16:47:36.533Z,20.13
2023-03-20T16:50:20.039Z,22.88
2023-03-20T16:52:51.217Z,17.58
2023-03-20T16:55:25.583Z,21.13
2023-03-20T16:57:58.444Z,16.67
2023-03-20T17:00:30.171Z,22.73
2023-03-20T17:03:16.679Z,22.67
2023-03-20T17:05:55.280Z,22.55
2023-03-20T17:08:37.906Z,21.73
2023-03-20T17:13:39.745Z,18.95
2023-03-20T17:16:08.820Z,22.38
2023-03-20T17:18:38.125Z,16.20
2023-03-20T17:21:06.398Z,18.92
2023-03-20T17:23:34.866Z,20.88
2023-03-20T17:26:02.817Z,24.63
2023-03-20T17:28:35.060Z,28.90
2023-03-20T17:31:05.508Z,24.50
2023-03-20T17:33:33.950Z,24.85
2023-03-20T17:36:02.256Z,23.40
2023-03-20T17:38:30.391Z,24.73
2023-03-20T17:40:58.361Z,27.88
2023-03-20T17:43:26.321Z,30.92
2023-03-20T17:45:54.434Z,30.80
2023-03-20T17:48:23.803Z,24.50
2023-03-20T17:50:51.862Z,23.67
2023-03-20T17:53:21.763Z,20.08
2023-03-20T17:55:49.785Z,22.90
2023-03-20T17:58:20.321Z,21.73
2023-03-20T18:00:48.643Z,26.25
2023-03-20T18:03:18.111Z,23.33
2023-03-20T18:05:50.810Z,31.27
2023-03-20T18:08:21.125Z,33.03
2023-03-20T18:10:50.205Z,33.88
2023-03-20T18:13:21.010Z,46.20
2023-03-20T18:15:49.677Z,39.85
2023-03-20T18:18:21.891Z,27.55
2023-03-20T18:20:54.778Z,32.00
2023-03-20T18:23:23.116Z,27.63
2023-03-20T18:25:51.252Z,30.90
2023-03-20T18:28:22.935Z,28.95
2023-03-20T18:30:51.648Z,26.88
2023-03-20T18:33:25.202Z,30.27
2023-03-20T18:35:55.061Z,27.90
2023-03-20T18:38:24.714Z,34.58
2023-03-20T18:40:52.792Z,37.17
2023-03-20T18:43:20.821Z,33.72
2023-03-20T18:45:49.226Z,35.97
2023-03-20T18:48:18.096Z,41.33
2023-03-20T18:50:50.964Z,26.85
2023-03-20T18:53:20.831Z,28.90
2023-03-20T18:55:49.018Z,30.00
2023-03-20T18:58:22.544Z,34.03
2023-03-20T19:00:50.708Z,34.53
2023-03-20T19:03:18.659Z,33.75
2023-03-20T19:05:46.661Z,30.20
2023-03-20T19:08:16.981Z,38.95
2023-03-20T19:10:47.821Z,33.15
2023-03-20T19:13:18.019Z,33.60
2023-03-20T19:15:46.994Z,33.55
2023-03-20T19:18:20.227Z,28.05
2023-03-20T19:20:49.970Z,34.55
2023-03-20T19:23:19.867Z,36.05
2023-03-20T19:25:51.302Z,20.73
2023-03-20T19:28:34.879Z,29.10
2023-03-20T19:31:06.524Z,32.28
2023-03-20T19:33:34.674Z,41.17
2023-03-20T19:36:04.332Z,42.22
2023-03-20T19:38:33.335Z,36.75
2023-03-20T19:41:03.726Z,33.85
2023-03-20T19:43:32.412Z,35.33
2023-03-20T19:46:00.911Z,36.40
2023-03-20T19:48:49.744Z,33.97
2023-03-20T19:51:20.136Z,36.35
2023-03-20T19:53:48.714Z,42.38
2023-03-20T19:56:20.374Z,40.17
2023-03-20T19:58:50.897Z,48.60
2023-03-20T20:01:21.469Z,41.00
2023-03-20T20:03:50.804Z,43.90
2023-03-20T20:06:22.224Z,43.05
2023-03-20T20:08:51.461Z,41.45
2023-03-20T20:11:22.275Z,46.47
2023-03-20T20:14:05.740Z,39.72
2023-03-20T20:16:36.277Z,34.75
2023-03-20T20:19:04.901Z,36.72
2023-03-20T20:24:23.963Z,42.75
2023-03-20T20:27:03.477Z,38.05
2023-03-20T20:29:42.996Z,41.65
2023-03-20T20:32:11.214Z,43.00
2023-03-20T20:40:19.879Z,54.03
2023-03-20T20:42:51.532Z,49.83
2023-03-20T20:45:21.153Z,48.47
2023-03-20T20:47:49.803Z,44.20
2023-03-20T20:50:19.992Z,44.22
2023-03-20T20:52:48.338Z,44.20
2023-03-20T20:55:22.845Z,49.38
2023-03-20T20:57:53.547Z,64.00
2023-03-20T21:00:27.407Z,41.08
2023-03-20T21:02:59.721Z,44.78
2023-03-20T21:05:28.156Z,46.42
2023-03-20T21:07:57.830Z,47.88
2023-03-20T21:10:25.852Z,48.95
2023-03-20T21:12:59.579Z,49.90
2023-03-20T21:15:28.097Z,43.80
2023-03-20T21:18:03.411Z,52.30
2023-03-20T21:20:31.575Z,51.38
2023-03-20T21:22:59.733Z,51.10
2023-03-20T21:25:39.531Z,50.10
2023-03-20T21:28:10.662Z,42.45
2023-03-20T21:30:49.850Z,46.60
2023-03-20T21:33:30.236Z,38.40
2023-03-20T21:35:58.242Z,41.30
2023-03-20T21:41:14.370Z,42.20
2023-03-20T21:43:46.616Z,46.72
2023-03-20T21:46:46.704Z,49.88
2023-03-20T21:52:41.848Z,43.67
2023-03-20T21:58:16.902Z,49.70
2023-03-20T22:01:08.382Z,35.08
2023-03-20T22:03:10.963Z,46.15
2023-03-20T22:06:23.723Z,47.50
2023-03-20T22:17:48.631Z,42.50
2023-03-20T22:26:10.178Z,39.15
2023-03-20T22:37:25.507Z,39.70
2023-03-20T22:42:51.367Z,41.60
2023-03-20T22:45:03.250Z,41.95
2023-03-20T22:47:32.393Z,49.25
2023-03-20T22:50:02.516Z,48.45
2023-03-20T22:52:49.366Z,46.60
2023-03-20T22:55:18.380Z,43.70
2023-03-20T22:57:59.868Z,41.78
2023-03-20T23:00:34.043Z,40.75
2023-03-20T23:05:51.965Z,46.00
2023-03-20T23:08:20.194Z,48.63
2023-03-20T23:10:50.596Z,43.47
2023-03-20T23:13:20.327Z,47.63
2023-03-20T23:15:50.538Z,48.45
2023-03-20T23:18:18.849Z,43.30
2023-03-20T23:20:46.757Z,46.33
2023-03-20T23:23:16.159Z,47.97
2023-03-20T23:25:44.116Z,46.63
2023-03-20T23:28:12.075Z,44.67
2023-03-20T23:30:56.673Z,46.53
2023-03-20T23:33:27.874Z,47.90
2023-03-20T23:35:58.474Z,39.35
2023-03-20T23:38:38.408Z,46.15
2023-03-20T23:41:06.972Z,49.42
2023-03-20T23:43:34.871Z,43.67
2023-03-20T23:46:02.814Z,42.65
2023-03-20T23:48:31.056Z,45.00
2023-03-20T23:50:59.251Z,43.30
2023-03-20T23:53:27.637Z,45.22
2023-03-20T23:55:58.229Z,47.30
2023-03-20T23:58:28.302Z,43.15
